Terminal Aerodrome Forecast
Issued by NWS

Home | Current Version | Previous Version | Text Only | Print | Product List | Glossary Off
Versions: 1 2 3 4 5 6 7 8 9 10 11 12 13 14 15 16 17 18 19 20 21

000
FTUS43 KICT 151122
TAFRSL
TAF
KRSL 151122Z 1512/1612 13009KT P6SM BKN040
     FM151800 15017G25KT P6SM SCT050
     FM160400 13012KT P6SM BKN030=

USA.gov is the U.S. government's official web portal to all federal, state and local government web resources and services.